createdAt,value
2022-10-14T00:00:08.596Z,32.0
2022-10-14T00:05:13.821Z,31.0
2022-10-14T00:10:20.034Z,31.0
2022-10-14T00:15:26.249Z,30.0
2022-10-14T00:20:32.472Z,30.5
2022-10-14T00:25:38.688Z,30.0
2022-10-14T00:30:44.900Z,31.0
2022-10-14T00:35:51.131Z,30.0
2022-10-14T00:40:57.326Z,30.0
2022-10-14T00:46:03.547Z,29.0
2022-10-14T00:51:09.782Z,28.5
2022-10-14T00:56:15.974Z,28.0
2022-10-14T01:01:22.174Z,28.0
2022-10-14T01:06:28.391Z,28.0
2022-10-14T01:11:34.607Z,28.0
2022-10-14T01:16:40.820Z,26.0
2022-10-14T01:21:47.024Z,26.0
2022-10-14T01:26:53.239Z,25.0
2022-10-14T01:31:59.467Z,25.0
2022-10-14T01:37:05.680Z,25.0
2022-10-14T01:42:11.895Z,25.0
2022-10-14T01:47:18.114Z,24.0
2022-10-14T01:52:23.702Z,23.0
2022-10-14T01:57:29.561Z,23.0
2022-10-14T02:02:34.800Z,24.0
2022-10-14T02:07:41.025Z,23.0
2022-10-14T02:12:47.268Z,23.0
2022-10-14T02:17:53.448Z,23.0
2022-10-14T02:22:59.660Z,23.0
2022-10-14T02:28:05.885Z,23.0
2022-10-14T02:33:12.087Z,22.5
2022-10-14T02:38:18.306Z,22.0
2022-10-14T02:43:24.520Z,22.0
2022-10-14T02:48:30.735Z,21.0
2022-10-14T02:53:36.960Z,22.0
2022-10-14T02:58:43.172Z,22.0
2022-10-14T03:03:49.396Z,22.0
2022-10-14T03:08:55.595Z,22.0
2022-10-14T03:14:01.814Z,21.0
2022-10-14T03:19:08.026Z,20.0
2022-10-14T03:24:14.240Z,21.0
2022-10-14T03:29:20.452Z,21.0
2022-10-14T03:34:26.659Z,21.0
2022-10-14T03:39:32.870Z,21.0
2022-10-14T03:44:39.082Z,21.0
2022-10-14T03:49:44.329Z,20.0
2022-10-14T03:54:50.539Z,21.0
2022-10-14T03:59:56.758Z,21.0
2022-10-14T04:05:02.001Z,21.0
2022-10-14T04:10:08.205Z,21.0
2022-10-14T04:15:14.410Z,21.0
2022-10-14T04:20:20.624Z,21.0
2022-10-14T04:25:26.845Z,22.0
2022-10-14T04:30:33.055Z,22.0
2022-10-14T04:35:39.274Z,22.0
2022-10-14T04:40:45.484Z,22.0
2022-10-14T04:45:51.714Z,22.0
2022-10-14T04:50:57.921Z,23.0
2022-10-14T04:56:04.137Z,22.0
2022-10-14T05:01:10.350Z,23.0
2022-10-14T05:06:16.574Z,24.0
2022-10-14T05:11:22.775Z,25.0
2022-10-14T05:16:29.001Z,25.5
2022-10-14T05:21:35.235Z,25.5
2022-10-14T05:26:41.435Z,25.0
2022-10-14T05:31:47.648Z,25.0
2022-10-14T05:36:52.873Z,25.0
2022-10-14T05:41:59.103Z,25.0
2022-10-14T05:47:05.299Z,25.0
2022-10-14T05:52:10.542Z,26.0
2022-10-14T05:57:16.753Z,26.0
2022-10-14T06:07:29.169Z,24.0
2022-10-14T06:12:35.610Z,24.0
2022-10-14T06:17:41.605Z,23.0
2022-10-14T06:22:47.813Z,24.0
2022-10-14T06:27:54.022Z,23.0
2022-10-14T06:33:00.247Z,23.0
2022-10-14T06:38:06.439Z,22.0
2022-10-14T06:43:12.642Z,21.5
2022-10-14T06:48:18.857Z,20.0
2022-10-14T06:53:25.077Z,19.0
2022-10-14T06:58:31.285Z,18.0
2022-10-14T07:03:37.501Z,17.0
2022-10-14T07:08:43.722Z,16.0
2022-10-14T07:13:49.920Z,16.0
2022-10-14T07:18:56.126Z,15.0
2022-10-14T07:24:02.343Z,15.0
2022-10-14T07:29:08.570Z,15.0
2022-10-14T07:39:20.956Z,14.0
2022-10-14T07:44:27.528Z,12.0
2022-10-14T07:49:32.400Z,12.0
2022-10-14T07:54:38.611Z,12.0
2022-10-14T07:59:44.825Z,11.0
2022-10-14T08:04:51.028Z,11.0
2022-10-14T08:09:57.236Z,10.0
2022-10-14T08:15:03.455Z,11.0
2022-10-14T08:20:09.693Z,10.0
2022-10-14T08:25:15.865Z,9.0
2022-10-14T08:30:22.104Z,9.0
2022-10-14T08:35:28.279Z,9.0
2022-10-14T08:40:34.493Z,8.0
2022-10-14T08:45:40.698Z,8.0
2022-10-14T08:50:46.906Z,8.0
2022-10-14T08:55:53.118Z,8.0
2022-10-14T09:00:59.317Z,8.0
2022-10-14T09:06:05.586Z,8.0
2022-10-14T09:11:11.730Z,8.0
2022-10-14T09:16:17.945Z,8.0
2022-10-14T09:21:34.201Z,8.0
2022-10-14T09:26:30.369Z,8.0
2022-10-14T09:31:36.587Z,8.0
2022-10-14T09:36:41.882Z,8.0
2022-10-14T09:41:48.044Z,7.0
2022-10-14T09:46:53.254Z,8.0
2022-10-14T09:51:59.461Z,7.0
2022-10-14T09:57:04.698Z,7.0
2022-10-14T10:02:10.903Z,6.0
2022-10-14T10:07:16.180Z,6.0
2022-10-14T10:12:22.347Z,6.0
2022-10-14T10:17:28.560Z,6.0
2022-10-14T10:22:34.768Z,6.0
2022-10-14T10:27:40.981Z,6.0
2022-10-14T10:32:47.178Z,7.0
2022-10-14T10:37:53.387Z,6.0
2022-10-14T10:42:59.601Z,7.0
2022-10-14T10:48:05.995Z,6.0
2022-10-14T10:53:12.026Z,6.0
2022-10-14T10:58:18.228Z,6.0
2022-10-14T11:03:24.439Z,7.0
2022-10-14T11:08:30.696Z,6.0
2022-10-14T11:13:36.857Z,7.0
2022-10-14T11:18:43.064Z,6.5
2022-10-14T11:23:49.263Z,7.0
2022-10-14T11:28:55.498Z,7.0
2022-10-14T11:34:01.691Z,6.0
2022-10-14T11:39:07.888Z,6.0
2022-10-14T11:44:14.094Z,5.0
2022-10-14T11:49:20.303Z,5.0
2022-10-14T11:54:25.543Z,5.0
2022-10-14T11:59:31.757Z,5.0
2022-10-14T12:04:36.987Z,4.0
2022-10-14T12:09:43.196Z,4.0
2022-10-14T12:14:49.399Z,4.0
2022-10-14T12:19:55.620Z,4.0
2022-10-14T12:25:01.823Z,5.0
2022-10-14T12:30:08.045Z,5.0
2022-10-14T12:35:14.235Z,5.0
2022-10-14T12:40:20.448Z,6.0
2022-10-14T12:45:26.667Z,6.0
2022-10-14T12:50:32.860Z,6.0
2022-10-14T12:55:39.082Z,7.0
2022-10-14T13:00:45.289Z,7.0
2022-10-14T13:05:51.489Z,7.0
2022-10-14T13:10:57.691Z,7.0
2022-10-14T13:16:03.906Z,7.0
2022-10-14T13:21:10.112Z,7.0
2022-10-14T13:26:16.317Z,8.0
2022-10-14T13:31:22.547Z,7.0
2022-10-14T13:36:28.741Z,7.0
2022-10-14T13:41:34.999Z,7.0
2022-10-14T13:46:41.154Z,7.5
2022-10-14T13:51:46.397Z,7.0
2022-10-14T13:57:01.812Z,8.0
2022-10-14T14:01:57.874Z,8.0
2022-10-14T14:07:35.108Z,8.0
2022-10-14T14:12:10.263Z,8.0
2022-10-14T14:17:16.472Z,7.0
2022-10-14T14:22:22.679Z,5.0
2022-10-14T14:27:28.885Z,6.0
2022-10-14T14:32:35.098Z,6.0
2022-10-14T14:37:55.023Z,7.0
2022-10-14T14:42:47.515Z,9.0
2022-10-14T14:47:53.721Z,10.0
2022-10-14T14:52:59.928Z,9.0
2022-10-14T14:58:06.152Z,10.0
2022-10-14T15:03:12.343Z,10.0
2022-10-14T15:08:18.552Z,10.0
2022-10-14T15:13:24.773Z,11.0
2022-10-14T15:18:30.975Z,12.0
2022-10-14T15:23:37.188Z,13.0
2022-10-14T15:28:43.464Z,13.0
2022-10-14T15:33:49.611Z,13.0
2022-10-14T15:38:55.804Z,14.0
2022-10-14T15:44:02.026Z,14.0
2022-10-14T15:49:07.255Z,14.0
2022-10-14T15:54:13.466Z,14.0
2022-10-14T15:59:18.701Z,14.0
2022-10-14T16:04:24.971Z,14.0
2022-10-14T16:09:31.119Z,15.0
2022-10-14T16:14:37.325Z,16.0
2022-10-14T16:19:43.538Z,16.0
2022-10-14T16:24:49.752Z,16.0
2022-10-14T16:29:55.950Z,17.0
2022-10-14T16:35:02.175Z,17.0
2022-10-14T16:40:08.389Z,18.0
2022-10-14T16:45:14.586Z,17.0
2022-10-14T16:50:20.783Z,17.0
2022-10-14T16:55:26.990Z,18.0
2022-10-14T17:00:33.214Z,18.0
2022-10-14T17:05:39.409Z,18.0
2022-10-14T17:10:45.620Z,20.0
2022-10-14T17:15:51.825Z,21.0
2022-10-14T17:20:58.042Z,26.0
2022-10-14T17:26:04.242Z,22.0
2022-10-14T17:31:10.458Z,23.0
2022-10-14T17:36:16.655Z,22.0
2022-10-14T17:41:22.866Z,22.0
2022-10-14T17:46:28.095Z,22.0
2022-10-14T17:51:34.315Z,22.0
2022-10-14T17:56:39.545Z,22.0
2022-10-14T18:06:51.958Z,23.0
2022-10-14T18:12:09.497Z,23.0
2022-10-14T18:17:04.373Z,26.0
2022-10-14T18:22:10.584Z,25.0
2022-10-14T18:27:16.798Z,25.0
2022-10-14T18:32:23.421Z,25.0
2022-10-14T18:37:29.237Z,24.0
2022-10-14T18:42:35.423Z,24.0
2022-10-14T18:47:41.619Z,24.0
2022-10-14T18:52:47.852Z,24.0
2022-10-14T18:57:54.069Z,23.0
2022-10-14T19:03:00.242Z,25.0
2022-10-14T19:08:06.551Z,28.0
2022-10-14T19:13:12.682Z,27.0
2022-10-14T19:18:18.873Z,26.0
2022-10-14T19:23:25.079Z,26.0
2022-10-14T19:28:31.404Z,25.0
2022-10-14T19:33:37.502Z,25.0
2022-10-14T19:38:43.706Z,24.0
2022-10-14T19:43:48.940Z,25.0
2022-10-14T19:48:55.156Z,20.0
2022-10-14T19:54:00.391Z,23.0
2022-10-14T19:59:06.589Z,22.0
2022-10-14T20:04:12.802Z,23.0
2022-10-14T20:09:19.028Z,25.0
2022-10-14T20:14:25.228Z,25.5
2022-10-14T20:19:31.436Z,22.0
2022-10-14T20:24:37.645Z,22.0
2022-10-14T20:29:43.853Z,22.0
2022-10-14T20:34:50.064Z,23.0
2022-10-14T20:39:56.271Z,21.0
2022-10-14T20:45:02.500Z,20.0
2022-10-14T20:50:08.695Z,21.0
2022-10-14T20:55:14.902Z,20.0
2022-10-14T21:00:21.117Z,19.0
2022-10-14T21:05:27.335Z,18.0
2022-10-14T21:10:33.551Z,19.0
2022-10-14T21:15:39.779Z,19.0
2022-10-14T21:20:46.043Z,19.0
2022-10-14T21:25:52.202Z,21.0
2022-10-14T21:30:58.411Z,20.0
2022-10-14T21:36:04.619Z,21.0
2022-10-14T21:41:09.868Z,19.0
2022-10-14T21:46:16.090Z,20.0
2022-10-14T21:51:21.319Z,18.0
2022-10-14T21:56:27.539Z,18.0
2022-10-14T22:01:33.812Z,17.0
2022-10-14T22:06:39.967Z,18.0
2022-10-14T22:11:46.177Z,17.0
2022-10-14T22:16:52.386Z,16.0
2022-10-14T22:21:58.605Z,18.0
2022-10-14T22:27:04.817Z,20.0
2022-10-14T22:32:11.034Z,19.0
2022-10-14T22:37:17.249Z,20.0
2022-10-14T22:42:22.539Z,21.0
2022-10-14T22:47:28.699Z,21.0
2022-10-14T22:52:34.912Z,21.0
2022-10-14T22:57:41.130Z,20.0
2022-10-14T23:02:47.452Z,19.5
2022-10-14T23:07:53.546Z,19.0
2022-10-14T23:12:59.769Z,20.0
2022-10-14T23:18:05.979Z,20.0
2022-10-14T23:23:12.234Z,18.0
2022-10-14T23:28:18.455Z,14.0
2022-10-14T23:33:24.625Z,15.0
2022-10-14T23:38:29.855Z,13.0
2022-10-14T23:43:36.066Z,13.0
2022-10-14T23:48:41.307Z,13.0
2022-10-14T23:53:47.515Z,14.0
2022-10-14T23:58:53.725Z,15.0
